createdAt,value
2023-05-19T00:01:21.285Z,94947.38
2023-05-19T00:03:54.657Z,94940.31
2023-05-19T00:06:33.283Z,94931.56
2023-05-19T00:09:09.927Z,94925.31
2023-05-19T00:11:39.968Z,94935.00
2023-05-19T00:14:09.744Z,94931.25
2023-05-19T00:16:40.601Z,94928.94
2023-05-19T00:19:10.662Z,94927.63
2023-05-19T00:21:38.987Z,94929.59
2023-05-19T00:24:07.072Z,94933.88
2023-05-19T00:26:34.271Z,94925.47
2023-05-19T00:29:01.170Z,94921.03
2023-05-19T00:31:28.265Z,94929.13
2023-05-19T00:33:55.301Z,94919.41
2023-05-19T00:36:22.208Z,94924.66
2023-05-19T00:38:49.108Z,94913.47
2023-05-19T00:41:16.034Z,94907.06
2023-05-19T00:43:42.898Z,94914.47
2023-05-19T00:46:11.245Z,94915.78
2023-05-19T00:48:38.260Z,94917.75
2023-05-19T00:51:06.749Z,94921.69
2023-05-19T00:53:35.262Z,94920.72
2023-05-19T00:56:03.526Z,94916.44
2023-05-19T00:58:32.814Z,94918.59
2023-05-19T01:01:05.365Z,94913.78
2023-05-19T01:03:37.170Z,94912.81
2023-05-19T01:06:08.197Z,94911.66
2023-05-19T01:08:38.077Z,94904.44
2023-05-19T01:11:08.802Z,94908.03
2023-05-19T01:13:36.776Z,94903.63
2023-05-19T01:16:24.322Z,94913.63
2023-05-19T01:19:15.614Z,94904.59
2023-05-19T01:22:13.357Z,94904.59
2023-05-19T01:25:45.868Z,94897.00
2023-05-19T01:28:24.744Z,94909.50
2023-05-19T01:30:57.295Z,94903.25
2023-05-19T01:33:25.287Z,94906.84
2023-05-19T01:35:55.149Z,94910.00
2023-05-19T01:38:23.676Z,94910.81
2023-05-19T01:40:52.496Z,94913.13
2023-05-19T01:43:23.424Z,94909.03
2023-05-19T01:45:51.714Z,94909.84
2023-05-19T01:48:19.500Z,94903.56
2023-05-19T01:50:46.606Z,94905.25
2023-05-19T01:53:13.771Z,94900.94
2023-05-19T01:55:52.420Z,94904.22
2023-05-19T01:58:49.005Z,94898.97
2023-05-19T02:01:47.359Z,94898.31
2023-05-19T02:04:44.256Z,94905.19
2023-05-19T02:07:37.223Z,94899.25
2023-05-19T02:10:15.366Z,94900.19
2023-05-19T02:12:43.134Z,94902.47
2023-05-19T02:15:17.692Z,94894.94
2023-05-19T02:17:51.979Z,94893.94
2023-05-19T02:20:19.399Z,94899.34
2023-05-19T02:22:46.400Z,94891.31
2023-05-19T02:25:13.263Z,94902.47
2023-05-19T02:27:41.162Z,94893.56
2023-05-19T02:30:09.932Z,94905.63
2023-05-19T02:32:36.916Z,94900.81
2023-05-19T02:35:04.489Z,94898.78
2023-05-19T02:37:32.714Z,94899.66
2023-05-19T02:39:59.745Z,94900.25
2023-05-19T02:42:26.624Z,94892.06
2023-05-19T02:44:55.162Z,94888.28
2023-05-19T02:47:22.110Z,94885.31
2023-05-19T02:49:49.001Z,94884.47
2023-05-19T02:52:15.973Z,94885.28
2023-05-19T02:54:42.975Z,94889.53
2023-05-19T02:57:11.350Z,94889.13
2023-05-19T02:59:38.297Z,94878.59
2023-05-19T03:02:05.413Z,94888.50
2023-05-19T03:04:32.306Z,94885.19
2023-05-19T03:06:59.162Z,94886.34
2023-05-19T03:09:26.044Z,94880.25
2023-05-19T03:11:52.885Z,94885.34
2023-05-19T03:14:24.268Z,94884.91
2023-05-19T03:16:51.542Z,94880.97
2023-05-19T03:19:18.655Z,94882.94
2023-05-19T03:21:45.551Z,94881.56
2023-05-19T03:24:12.414Z,94884.19
2023-05-19T03:26:39.414Z,94888.97
2023-05-19T03:29:06.251Z,94884.53
2023-05-19T03:31:33.133Z,94886.16
2023-05-19T03:34:00.130Z,94888.31
2023-05-19T03:36:32.225Z,94883.16
2023-05-19T03:38:59.622Z,94895.94
2023-05-19T03:41:26.538Z,94889.28
2023-05-19T03:43:53.385Z,94893.06
2023-05-19T03:46:20.389Z,94885.69
2023-05-19T03:48:47.367Z,94890.06
2023-05-19T03:51:14.262Z,94887.13
2023-05-19T03:53:41.525Z,94885.41
2023-05-19T03:56:11.828Z,94897.88
2023-05-19T03:58:41.009Z,94884.41
2023-05-19T04:01:07.911Z,94896.91
2023-05-19T04:03:34.816Z,94892.25
2023-05-19T04:06:01.777Z,94888.63
2023-05-19T04:08:28.636Z,94896.34
2023-05-19T04:10:55.609Z,94885.03
2023-05-19T04:13:22.463Z,94891.31
2023-05-19T04:15:49.486Z,94890.97
2023-05-19T04:18:16.398Z,94893.25
2023-05-19T04:20:43.233Z,94890.91
2023-05-19T04:23:10.691Z,94889.97
2023-05-19T04:25:37.761Z,94887.81
2023-05-19T04:28:04.723Z,94877.13
2023-05-19T04:30:31.788Z,94890.59
2023-05-19T04:33:01.272Z,94892.25
2023-05-19T04:35:28.266Z,94884.72
2023-05-19T04:37:55.829Z,94887.94
2023-05-19T04:40:24.028Z,94883.00
2023-05-19T04:42:52.526Z,94880.91
2023-05-19T04:45:19.556Z,94893.06
2023-05-19T04:47:49.241Z,94882.94
2023-05-19T04:50:17.156Z,94886.56
2023-05-19T04:52:45.828Z,94879.34
2023-05-19T04:55:13.513Z,94881.31
2023-05-19T04:57:40.503Z,94885.22
2023-05-19T05:00:12.998Z,94891.50
2023-05-19T05:02:39.905Z,94885.59
2023-05-19T05:05:08.102Z,94892.84
2023-05-19T05:07:34.987Z,94889.25
2023-05-19T05:10:01.868Z,94890.91
2023-05-19T05:12:29.005Z,94886.31
2023-05-19T05:14:56.231Z,94879.44
2023-05-19T05:17:23.514Z,94877.78
2023-05-19T05:19:50.882Z,94881.06
2023-05-19T05:22:18.573Z,94876.47
2023-05-19T05:24:46.282Z,94888.97
2023-05-19T05:27:13.849Z,94881.59
2023-05-19T05:29:40.832Z,94892.97
2023-05-19T05:32:08.273Z,94880.69
2023-05-19T05:34:36.187Z,94874.28
2023-05-19T05:37:03.094Z,94886.78
2023-05-19T05:39:30.260Z,94882.69
2023-05-19T05:41:57.130Z,94886.16
2023-05-19T05:44:23.986Z,94880.56
2023-05-19T05:46:51.367Z,94883.22
2023-05-19T05:49:18.668Z,94880.22
2023-05-19T05:52:01.481Z,94886.63
2023-05-19T05:54:32.554Z,94873.34
2023-05-19T05:57:00.006Z,94885.84
2023-05-19T05:59:27.690Z,94870.03
2023-05-19T06:01:54.619Z,94875.94
2023-05-19T06:04:21.487Z,94872.13
2023-05-19T06:06:48.359Z,94868.84
2023-05-19T06:09:15.273Z,94876.25
2023-05-19T06:11:42.129Z,94865.09
2023-05-19T06:14:09.025Z,94868.38
2023-05-19T06:16:35.965Z,94864.44
2023-05-19T06:19:02.911Z,94884.13
2023-05-19T06:21:29.787Z,94872.28
2023-05-19T06:23:56.706Z,94875.50
2023-05-19T06:26:23.553Z,94880.13
2023-05-19T06:28:50.411Z,94882.44
2023-05-19T06:31:17.746Z,94877.31
2023-05-19T06:33:44.666Z,94874.47
2023-05-19T06:36:12.153Z,94886.63
2023-05-19T06:38:39.013Z,94879.75
2023-05-19T06:41:05.873Z,94876.31
2023-05-19T06:43:32.936Z,94886.22
2023-05-19T06:45:59.845Z,94879.69
2023-05-19T06:48:26.721Z,94877.03
2023-05-19T06:50:53.590Z,94882.66
2023-05-19T06:53:21.558Z,94879.38
2023-05-19T06:55:59.319Z,94874.56
2023-05-19T06:58:27.351Z,94872.25
2023-05-19T07:00:54.211Z,94870.88
2023-05-19T07:03:21.150Z,94875.19
2023-05-19T07:05:48.209Z,94876.84
2023-05-19T07:08:15.164Z,94879.78
2023-05-19T07:10:42.005Z,94878.25
2023-05-19T07:13:08.957Z,94871.56
2023-05-19T07:15:35.841Z,94869.91
2023-05-19T07:18:02.772Z,94878.09
2023-05-19T07:20:29.786Z,94878.66
2023-05-19T07:22:56.667Z,94874.47
2023-05-19T07:25:23.949Z,94875.88
2023-05-19T07:27:50.972Z,94878.25
2023-05-19T07:30:17.834Z,94869.91
2023-05-19T07:32:44.760Z,94877.66
2023-05-19T07:35:11.842Z,94881.09
2023-05-19T07:37:38.732Z,94869.47
2023-05-19T07:40:09.608Z,94871.72
2023-05-19T07:42:36.465Z,94881.66
2023-05-19T07:45:03.767Z,94865.53
2023-05-19T07:47:31.409Z,94874.03
2023-05-19T07:49:58.318Z,94874.31
2023-05-19T07:52:25.219Z,94872.03
2023-05-19T07:54:52.082Z,94872.31
2023-05-19T07:57:19.329Z,94865.59
2023-05-19T07:59:46.186Z,94865.66
2023-05-19T08:02:13.164Z,94864.88
2023-05-19T08:04:40.110Z,94872.25
2023-05-19T08:07:07.039Z,94870.88
2023-05-19T08:09:33.901Z,94869.09
2023-05-19T08:12:01.870Z,94872.22
2023-05-19T08:14:28.787Z,94868.28
2023-05-19T08:16:55.704Z,94874.16
2023-05-19T08:19:22.928Z,94869.19
2023-05-19T08:21:49.882Z,94868.94
2023-05-19T08:24:16.816Z,94868.69
2023-05-19T08:26:44.804Z,94855.63
2023-05-19T08:29:11.690Z,94856.19
2023-05-19T08:31:38.565Z,94847.41
2023-05-19T08:34:05.470Z,94856.94
2023-05-19T08:36:33.995Z,94850.94
2023-05-19T08:39:01.064Z,94858.75
2023-05-19T08:41:27.942Z,94843.66
2023-05-19T08:43:55.408Z,94851.22
2023-05-19T08:46:25.372Z,94828.09
2023-05-19T08:48:59.398Z,94844.84
2023-05-19T08:52:14.093Z,94846.97
2023-05-19T08:54:51.119Z,94844.50
2023-05-19T08:57:19.202Z,94846.03
2023-05-19T08:59:46.428Z,94848.28
2023-05-19T09:02:14.621Z,94853.88
2023-05-19T09:04:46.096Z,94832.97
2023-05-19T09:07:15.615Z,94836.44
2023-05-19T09:09:44.217Z,94833.91
2023-05-19T09:12:11.855Z,94833.44
2023-05-19T09:14:39.160Z,94825.97
2023-05-19T09:17:06.807Z,94823.41
2023-05-19T09:19:33.821Z,94827.47
2023-05-19T09:22:03.972Z,94818.53
2023-05-19T09:24:31.187Z,94833.38
2023-05-19T09:27:00.085Z,94824.25
2023-05-19T09:29:28.434Z,94827.97
2023-05-19T09:32:01.151Z,94817.47
2023-05-19T09:34:28.208Z,94806.84
2023-05-19T09:36:55.134Z,94804.06
2023-05-19T09:39:26.120Z,94819.28
2023-05-19T09:41:54.907Z,94810.69
2023-05-19T09:44:29.952Z,94817.28
2023-05-19T09:46:58.610Z,94820.78
2023-05-19T09:49:31.516Z,94821.09
2023-05-19T09:52:00.369Z,94819.94
2023-05-19T09:54:32.541Z,94820.69
2023-05-19T09:57:02.621Z,94816.31
2023-05-19T09:59:32.266Z,94814.19
2023-05-19T10:02:01.617Z,94816.56
2023-05-19T10:04:30.403Z,94802.09
2023-05-19T10:07:05.691Z,94803.84
2023-05-19T10:09:34.472Z,94805.44
2023-05-19T10:12:02.744Z,94806.59
2023-05-19T10:14:30.508Z,94808.00
2023-05-19T10:16:59.729Z,94816.66
2023-05-19T10:19:29.816Z,94813.50
2023-05-19T10:21:57.124Z,94815.09
2023-05-19T10:24:24.116Z,94816.94
2023-05-19T10:27:03.727Z,94818.50
2023-05-19T10:29:35.093Z,94821.31
2023-05-19T10:32:09.745Z,94824.56
2023-05-19T10:35:10.742Z,94822.34
2023-05-19T10:38:11.390Z,94823.22
2023-05-19T10:41:21.790Z,94820.78
2023-05-19T10:44:25.159Z,94815.28
2023-05-19T10:46:54.177Z,94812.94
2023-05-19T10:49:23.416Z,94810.50
2023-05-19T10:51:52.726Z,94804.91
2023-05-19T10:54:43.730Z,94821.41
2023-05-19T10:57:16.712Z,94821.88
2023-05-19T10:59:49.738Z,94817.88
2023-05-19T11:02:42.001Z,94821.13
2023-05-19T11:05:13.040Z,94824.81
2023-05-19T11:07:43.695Z,94816.06
2023-05-19T11:10:11.724Z,94819.63
2023-05-19T11:12:45.268Z,94820.81
2023-05-19T11:15:14.337Z,94825.28
2023-05-19T11:17:43.071Z,94819.31
2023-05-19T11:20:22.524Z,94821.38
2023-05-19T11:23:09.313Z,94821.69
2023-05-19T11:25:47.333Z,94821.13
2023-05-19T11:28:26.002Z,94818.84
2023-05-19T11:30:57.913Z,94817.63
2023-05-19T11:33:29.313Z,94816.03
2023-05-19T11:36:00.083Z,94828.03
2023-05-19T11:38:28.721Z,94821.72
2023-05-19T11:40:57.627Z,94823.28
2023-05-19T11:43:26.141Z,94837.94
2023-05-19T11:45:55.120Z,94834.00
2023-05-19T11:48:22.840Z,94831.47
2023-05-19T11:50:51.122Z,94840.81
2023-05-19T11:53:20.038Z,94829.31
2023-05-19T11:55:48.599Z,94838.88
2023-05-19T11:58:17.055Z,94814.31
2023-05-19T12:00:48.025Z,94833.75
2023-05-19T12:03:15.304Z,94834.69
2023-05-19T12:05:48.723Z,94827.84
2023-05-19T12:08:18.861Z,94838.94
2023-05-19T12:13:17.227Z,94835.09
2023-05-19T12:15:44.480Z,94826.63
2023-05-19T12:18:11.454Z,94837.59
2023-05-19T12:20:38.523Z,94824.25
2023-05-19T12:23:05.977Z,94819.63
2023-05-19T12:25:33.128Z,94836.50
2023-05-19T12:28:03.242Z,94825.34
2023-05-19T12:30:32.276Z,94818.72
2023-05-19T12:32:59.853Z,94816.56
2023-05-19T12:35:34.656Z,94825.13
2023-05-19T12:38:05.637Z,94830.41
2023-05-19T12:40:37.917Z,94829.84
2023-05-19T12:43:05.776Z,94828.63
2023-05-19T12:45:42.740Z,94828.13
2023-05-19T12:48:12.937Z,94828.59
2023-05-19T12:50:39.937Z,94825.94
2023-05-19T12:53:11.313Z,94834.94
2023-05-19T12:55:45.219Z,94836.09
2023-05-19T12:58:13.130Z,94826.34
2023-05-19T13:00:45.724Z,94822.25
2023-05-19T13:03:19.976Z,94818.28
2023-05-19T13:05:49.847Z,94818.00
2023-05-19T13:08:23.407Z,94819.16
2023-05-19T13:10:50.379Z,94809.63
2023-05-19T13:13:17.876Z,94812.38
2023-05-19T13:15:46.590Z,94811.38
2023-05-19T13:18:14.552Z,94816.34
2023-05-19T13:20:44.607Z,94814.47
2023-05-19T13:23:13.009Z,94811.03
2023-05-19T13:25:41.435Z,94819.59
2023-05-19T13:28:08.927Z,94810.31
2023-05-19T13:30:38.767Z,94809.75
2023-05-19T13:33:06.148Z,94800.06
2023-05-19T13:35:37.573Z,94801.81
2023-05-19T13:38:12.681Z,94805.91
2023-05-19T13:40:40.538Z,94805.63
2023-05-19T13:43:08.926Z,94796.28
2023-05-19T13:45:35.971Z,94801.81
2023-05-19T13:48:02.984Z,94785.31
2023-05-19T13:50:29.929Z,94801.94
2023-05-19T13:52:56.931Z,94803.28
2023-05-19T13:55:23.973Z,94797.44
2023-05-19T13:57:51.096Z,94799.94
2023-05-19T14:00:19.160Z,94812.41
2023-05-19T14:02:46.565Z,94819.22
2023-05-19T14:05:13.639Z,94808.81
2023-05-19T14:07:40.703Z,94797.97
2023-05-19T14:10:08.410Z,94796.78
2023-05-19T14:12:49.411Z,94795.78
2023-05-19T14:15:23.058Z,94795.78
2023-05-19T14:17:49.988Z,94799.88
2023-05-19T14:20:16.969Z,94800.56
2023-05-19T14:22:43.830Z,94801.94
2023-05-19T14:25:10.799Z,94792.13
2023-05-19T14:27:40.133Z,94803.97
2023-05-19T14:30:08.624Z,94810.25
2023-05-19T14:32:36.151Z,94801.41
2023-05-19T14:35:03.220Z,94798.84
2023-05-19T14:37:32.089Z,94811.25
2023-05-19T14:39:59.803Z,94798.56
2023-05-19T14:42:26.703Z,94801.41
2023-05-19T14:44:53.609Z,94807.13
2023-05-19T14:47:20.479Z,94809.78
2023-05-19T14:49:47.479Z,94808.69
2023-05-19T14:52:14.356Z,94802.38
2023-05-19T14:54:41.273Z,94803.84
2023-05-19T14:57:08.305Z,94803.22
2023-05-19T14:59:38.826Z,94812.53
2023-05-19T15:02:06.235Z,94798.50
2023-05-19T15:04:33.125Z,94799.03
2023-05-19T15:09:29.843Z,94802.88
2023-05-19T15:11:56.772Z,94798.38
2023-05-19T15:14:24.418Z,94801.78
2023-05-19T15:16:52.016Z,94793.16
2023-05-19T15:19:18.913Z,94798.69
2023-05-19T15:21:46.006Z,94795.41
2023-05-19T15:24:12.859Z,94789.34
2023-05-19T15:26:39.816Z,94798.53
2023-05-19T15:29:06.713Z,94799.53
2023-05-19T15:31:35.769Z,94791.44
2023-05-19T15:34:04.277Z,94797.72
2023-05-19T15:36:31.712Z,94794.44
2023-05-19T15:38:58.609Z,94791.78
2023-05-19T15:41:25.956Z,94787.94
2023-05-19T15:43:53.770Z,94793.75
2023-05-19T15:46:20.761Z,94786.84
2023-05-19T15:48:47.737Z,94781.22
2023-05-19T15:51:14.798Z,94787.19
2023-05-19T15:53:41.661Z,94769.03
2023-05-19T15:56:08.578Z,94775.03
2023-05-19T15:58:35.451Z,94778.66
2023-05-19T16:01:03.372Z,94777.13
2023-05-19T16:03:30.496Z,94774.09
2023-05-19T16:05:57.942Z,94776.84
2023-05-19T16:08:25.353Z,94772.19
2023-05-19T16:10:52.271Z,94770.81
2023-05-19T16:13:19.133Z,94769.41
2023-05-19T16:15:45.995Z,94776.72
2023-05-19T16:18:13.187Z,94766.00
2023-05-19T16:20:40.145Z,94769.88
2023-05-19T16:23:07.070Z,94771.25
2023-05-19T16:25:34.059Z,94767.91
2023-05-19T16:28:00.938Z,94767.81
2023-05-19T16:30:28.279Z,94764.72
2023-05-19T16:32:55.162Z,94764.53
2023-05-19T16:35:22.276Z,94767.47
2023-05-19T16:37:49.431Z,94763.56
2023-05-19T16:40:16.398Z,94764.31
2023-05-19T16:42:43.278Z,94761.16
2023-05-19T16:45:10.646Z,94760.69
2023-05-19T16:47:37.729Z,94766.97
2023-05-19T16:50:04.985Z,94760.06
2023-05-19T16:52:31.906Z,94757.94
2023-05-19T16:54:58.794Z,94751.25
2023-05-19T16:57:25.722Z,94756.72
2023-05-19T16:59:52.552Z,94756.50
2023-05-19T17:02:19.510Z,94759.53
2023-05-19T17:04:46.455Z,94760.75
2023-05-19T17:07:17.035Z,94763.88
2023-05-19T17:09:44.877Z,94766.38
2023-05-19T17:12:11.749Z,94770.56
2023-05-19T17:14:38.691Z,94758.91
2023-05-19T17:17:05.646Z,94760.91
2023-05-19T17:19:32.735Z,94759.88
2023-05-19T17:21:59.743Z,94771.38
2023-05-19T17:24:28.937Z,94766.72
2023-05-19T17:26:56.041Z,94756.38
2023-05-19T17:29:23.134Z,94765.88
2023-05-19T17:31:50.062Z,94764.25
2023-05-19T17:34:16.923Z,94761.31
2023-05-19T17:36:43.780Z,94764.88
2023-05-19T17:39:10.861Z,94750.75
2023-05-19T17:41:37.725Z,94766.44
2023-05-19T17:44:06.873Z,94759.75
2023-05-19T17:46:34.958Z,94762.88
2023-05-19T17:49:02.204Z,94752.72
2023-05-19T17:51:29.546Z,94751.91
2023-05-19T17:53:56.847Z,94754.72
2023-05-19T17:56:25.214Z,94748.16
2023-05-19T17:58:52.534Z,94746.16
2023-05-19T18:01:23.955Z,94738.44
2023-05-19T18:03:51.154Z,94739.41
2023-05-19T18:06:19.422Z,94740.00
2023-05-19T18:08:50.655Z,94740.00
2023-05-19T18:11:18.873Z,94744.00
2023-05-19T18:13:45.871Z,94740.63
2023-05-19T18:16:15.350Z,94743.38
2023-05-19T18:18:43.776Z,94746.22
2023-05-19T18:21:17.915Z,94749.06
2023-05-19T18:23:46.098Z,94743.78
2023-05-19T18:26:13.693Z,94741.78
2023-05-19T18:28:41.668Z,94732.81
2023-05-19T18:31:17.583Z,94743.84
2023-05-19T18:33:45.322Z,94737.38
2023-05-19T18:36:12.525Z,94745.13
2023-05-19T18:38:41.448Z,94741.84
2023-05-19T18:41:09.452Z,94742.28
2023-05-19T18:43:36.356Z,94733.72
2023-05-19T18:46:03.292Z,94740.47
2023-05-19T18:48:30.384Z,94742.28
2023-05-19T18:50:57.472Z,94728.00
2023-05-19T18:53:24.583Z,94740.84
2023-05-19T18:55:51.466Z,94750.78
2023-05-19T18:58:19.251Z,94741.38
2023-05-19T19:00:46.155Z,94738.91
2023-05-19T19:03:13.175Z,94741.31
2023-05-19T19:05:40.321Z,94748.44
2023-05-19T19:08:07.259Z,94739.59
2023-05-19T19:10:37.464Z,94740.16
2023-05-19T19:13:04.422Z,94741.94
2023-05-19T19:15:31.846Z,94743.59
2023-05-19T19:17:58.727Z,94740.69
2023-05-19T19:20:25.735Z,94731.88
2023-05-19T19:22:53.656Z,94745.88
2023-05-19T19:25:23.129Z,94739.22
2023-05-19T19:27:50.738Z,94736.56
2023-05-19T19:30:17.813Z,94745.94
2023-05-19T19:32:44.795Z,94737.56
2023-05-19T19:35:11.889Z,94753.41
2023-05-19T19:37:38.757Z,94752.59
2023-05-19T19:40:06.906Z,94750.59
2023-05-19T19:42:34.302Z,94755.34
2023-05-19T19:45:01.219Z,94740.03
2023-05-19T19:47:28.130Z,94751.50
2023-05-19T19:49:56.104Z,94750.59
2023-05-19T19:52:22.992Z,94743.03
2023-05-19T19:54:49.857Z,94741.13
2023-05-19T19:57:19.501Z,94747.69
2023-05-19T19:59:46.360Z,94740.31
2023-05-19T20:02:14.170Z,94743.00
2023-05-19T20:04:41.194Z,94750.84
2023-05-19T20:07:08.098Z,94740.38
2023-05-19T20:09:34.936Z,94737.81
2023-05-19T20:12:01.874Z,94743.47
2023-05-19T20:14:28.742Z,94746.75
2023-05-19T20:16:55.833Z,94740.28
2023-05-19T20:19:25.273Z,94740.44
2023-05-19T20:21:52.154Z,94733.91
2023-05-19T20:24:19.041Z,94730.78
2023-05-19T20:26:45.945Z,94728.44
2023-05-19T20:29:12.825Z,94732.06
2023-05-19T20:31:39.730Z,94733.72
2023-05-19T20:34:06.682Z,94726.34
2023-05-19T20:36:33.546Z,94736.06
2023-05-19T20:39:00.404Z,94729.97
2023-05-19T20:41:27.571Z,94730.78
2023-05-19T20:43:55.231Z,94730.34
2023-05-19T20:46:22.196Z,94723.78
2023-05-19T20:48:49.122Z,94734.44
2023-05-19T20:51:15.962Z,94722.22
2023-05-19T20:53:42.798Z,94725.88
2023-05-19T20:56:10.832Z,94735.00
2023-05-19T20:58:38.128Z,94718.22
2023-05-19T21:01:20.789Z,94724.59
2023-05-19T21:03:47.679Z,94718.06
2023-05-19T21:06:14.527Z,94721.97
2023-05-19T21:08:41.481Z,94711.41
2023-05-19T21:11:08.313Z,94723.75
2023-05-19T21:13:39.249Z,94721.50
2023-05-19T21:16:06.442Z,94725.91
2023-05-19T21:18:35.073Z,94714.22
2023-05-19T21:21:04.149Z,94720.56
2023-05-19T21:23:31.226Z,94710.72
2023-05-19T21:25:59.784Z,94717.59
2023-05-19T21:28:26.701Z,94709.84
2023-05-19T21:30:53.831Z,94714.22
2023-05-19T21:33:20.859Z,94706.63
2023-05-19T21:35:47.803Z,94710.34
2023-05-19T21:38:23.262Z,94713.28
2023-05-19T21:40:50.682Z,94713.63
2023-05-19T21:43:17.539Z,94708.00
2023-05-19T21:45:44.406Z,94704.72
2023-05-19T21:48:11.653Z,94705.69
2023-05-19T21:50:39.099Z,94703.78
2023-05-19T21:53:06.085Z,94705.44
2023-05-19T21:55:33.112Z,94703.59
2023-05-19T21:58:01.673Z,94694.75
2023-05-19T22:00:29.636Z,94693.13
2023-05-19T22:02:57.103Z,94698.31
2023-05-19T22:05:24.063Z,94690.50
2023-05-19T22:07:50.985Z,94695.13
2023-05-19T22:10:17.867Z,94664.53
2023-05-19T22:12:44.733Z,94686.03
2023-05-19T22:15:13.536Z,94694.31
2023-05-19T22:17:40.777Z,94687.38
2023-05-19T22:20:08.625Z,94686.75
2023-05-19T22:22:35.831Z,94681.94
2023-05-19T22:25:03.873Z,94674.84
2023-05-19T22:27:30.913Z,94667.94
2023-05-19T22:29:59.885Z,94682.59
2023-05-19T22:32:26.924Z,94667.09
2023-05-19T22:34:53.988Z,94659.41
2023-05-19T22:37:23.192Z,94668.53
2023-05-19T22:39:50.084Z,94666.69
2023-05-19T22:42:16.951Z,94667.47
2023-05-19T22:44:43.844Z,94657.41
2023-05-19T22:47:13.754Z,94659.16
2023-05-19T22:49:42.601Z,94657.16
2023-05-19T22:52:11.233Z,94656.00
2023-05-19T22:54:38.317Z,94655.09
2023-05-19T22:57:05.690Z,94655.09
2023-05-19T22:59:32.569Z,94657.41
2023-05-19T23:01:59.438Z,94661.00
2023-05-19T23:04:26.582Z,94650.16
2023-05-19T23:06:53.498Z,94641.44
2023-05-19T23:09:20.393Z,94632.91
2023-05-19T23:11:47.389Z,94624.97
2023-05-19T23:14:14.311Z,94630.22
2023-05-19T23:16:41.194Z,94624.59
2023-05-19T23:19:08.154Z,94624.72
2023-05-19T23:21:35.030Z,94631.16
2023-05-19T23:24:02.035Z,94636.06
2023-05-19T23:26:28.936Z,94632.22
2023-05-19T23:28:55.787Z,94624.66
2023-05-19T23:31:22.752Z,94614.75
2023-05-19T23:33:49.753Z,94618.50
2023-05-19T23:36:17.874Z,94610.69
2023-05-19T23:38:44.759Z,94614.75
2023-05-19T23:41:11.700Z,94606.78
2023-05-19T23:43:39.492Z,94613.81
2023-05-19T23:46:06.509Z,94619.44
2023-05-19T23:48:33.869Z,94610.78
2023-05-19T23:51:00.933Z,94608.41
2023-05-19T23:53:27.815Z,94598.75
2023-05-19T23:55:55.643Z,94601.66
2023-05-19T23:58:23.666Z,94600.59
